<?xml version="1.0" encoding="UTF-8" standalone="no" ?>
<gpx xmlns="http://www.topografix.com/GPX/1/1" xmlns:xsi="http://www.w3.org/2001/XMLSchema-instance" xsi:schemaLocation="http://www.topografix.com/GPX/1/1 http://www.topografix.com/GPX/1/1/gpx.xsd" version="1.1" creator="VisuGPX - https://www.visugpx.com">
  <metadata>
    <name>Auvers Hérouville les champs Palous</name>
    <desc><![CDATA[
www.ibpindex.com 38713832076597]]></desc>
  </metadata>
  <trk>
    <name><![CDATA[www.ibpindex.com 38713832076597]]></name>
    <desc><![CDATA[www.ibpindex.com 38713832076597]]></desc>
    <extensions>
      <line xmlns="http://www.topografix.com/GPX/gpx_style/0/2">
        <color>0000FF</color>
        <width>4</width>
      </line>
    </extensions>
    <trkseg>
      <trkpt lat="49.07179" lon="2.16956">
        <ele>37</ele>
        <time>2022-09-02T13:53:35Z</time>
      </trkpt>
      <trkpt lat="49.07199" lon="2.17016">
        <ele>37</ele>
        <time>2022-09-02T13:54:35Z</time>
      </trkpt>
      <trkpt lat="49.07204" lon="2.1706">
        <ele>37</ele>
        <time>2022-09-02T13:55:35Z</time>
      </trkpt>
      <trkpt lat="49.07211" lon="2.17068">
        <ele>37</ele>
        <time>2022-09-02T13:57:35Z</time>
      </trkpt>
      <trkpt lat="49.07255" lon="2.17038">
        <ele>37</ele>
        <time>2022-09-02T14:00:35Z</time>
      </trkpt>
      <trkpt lat="49.07267" lon="2.17029">
        <ele>37</ele>
        <time>2022-09-02T14:01:35Z</time>
      </trkpt>
      <trkpt lat="49.07284" lon="2.17019">
        <ele>37</ele>
        <time>2022-09-02T14:02:35Z</time>
      </trkpt>
      <trkpt lat="49.07327" lon="2.16995">
        <ele>36</ele>
        <time>2022-09-02T14:03:35Z</time>
      </trkpt>
      <trkpt lat="49.07375" lon="2.16977">
        <ele>38</ele>
        <time>2022-09-02T14:04:35Z</time>
      </trkpt>
      <trkpt lat="49.07389" lon="2.16975">
        <ele>39</ele>
        <time>2022-09-02T14:05:35Z</time>
      </trkpt>
      <trkpt lat="49.07409" lon="2.16979">
        <ele>40</ele>
        <time>2022-09-02T14:06:35Z</time>
      </trkpt>
      <trkpt lat="49.07428" lon="2.16986">
        <ele>40</ele>
        <time>2022-09-02T14:07:35Z</time>
      </trkpt>
      <trkpt lat="49.07445" lon="2.16997">
        <ele>40</ele>
        <time>2022-09-02T14:08:35Z</time>
      </trkpt>
      <trkpt lat="49.07475" lon="2.17033">
        <ele>43</ele>
        <time>2022-09-02T14:09:35Z</time>
      </trkpt>
      <trkpt lat="49.07488" lon="2.17044">
        <ele>43</ele>
        <time>2022-09-02T14:10:35Z</time>
      </trkpt>
      <trkpt lat="49.0752" lon="2.17068">
        <ele>45</ele>
        <time>2022-09-02T14:11:35Z</time>
      </trkpt>
      <trkpt lat="49.07563" lon="2.17081">
        <ele>43</ele>
        <time>2022-09-02T14:12:35Z</time>
      </trkpt>
      <trkpt lat="49.07597" lon="2.17087">
        <ele>42</ele>
        <time>2022-09-02T14:13:35Z</time>
      </trkpt>
      <trkpt lat="49.07677" lon="2.17093">
        <ele>39</ele>
        <time>2022-09-02T14:14:35Z</time>
      </trkpt>
      <trkpt lat="49.07693" lon="2.17096">
        <ele>39</ele>
        <time>2022-09-02T14:15:35Z</time>
      </trkpt>
      <trkpt lat="49.0773" lon="2.17102">
        <ele>39</ele>
        <time>2022-09-02T14:16:35Z</time>
      </trkpt>
      <trkpt lat="49.07762" lon="2.1711">
        <ele>40</ele>
        <time>2022-09-02T14:17:35Z</time>
      </trkpt>
      <trkpt lat="49.07804" lon="2.17128">
        <ele>42</ele>
        <time>2022-09-02T14:18:35Z</time>
      </trkpt>
      <trkpt lat="49.07904" lon="2.17194">
        <ele>43</ele>
        <time>2022-09-02T14:19:35Z</time>
      </trkpt>
      <trkpt lat="49.07983" lon="2.17237">
        <ele>48</ele>
        <time>2022-09-02T14:20:35Z</time>
      </trkpt>
      <trkpt lat="49.08033" lon="2.17268">
        <ele>54</ele>
        <time>2022-09-02T14:21:35Z</time>
      </trkpt>
      <trkpt lat="49.08072" lon="2.17287">
        <ele>57</ele>
        <time>2022-09-02T14:22:35Z</time>
      </trkpt>
      <trkpt lat="49.08188" lon="2.17394">
        <ele>62</ele>
        <time>2022-09-02T14:23:35Z</time>
      </trkpt>
      <trkpt lat="49.08226" lon="2.17386">
        <ele>62</ele>
        <time>2022-09-02T14:25:35Z</time>
      </trkpt>
      <trkpt lat="49.08278" lon="2.17364">
        <ele>64</ele>
        <time>2022-09-02T14:26:35Z</time>
      </trkpt>
      <trkpt lat="49.08319" lon="2.17338">
        <ele>66</ele>
        <time>2022-09-02T14:27:35Z</time>
      </trkpt>
      <trkpt lat="49.08354" lon="2.17311">
        <ele>67</ele>
        <time>2022-09-02T14:28:35Z</time>
      </trkpt>
      <trkpt lat="49.08366" lon="2.17292">
        <ele>68</ele>
        <time>2022-09-02T14:29:35Z</time>
      </trkpt>
      <trkpt lat="49.08375" lon="2.17261">
        <ele>69</ele>
        <time>2022-09-02T14:30:35Z</time>
      </trkpt>
      <trkpt lat="49.08387" lon="2.17229">
        <ele>71</ele>
        <time>2022-09-02T14:31:35Z</time>
      </trkpt>
      <trkpt lat="49.08416" lon="2.17172">
        <ele>76</ele>
        <time>2022-09-02T14:32:35Z</time>
      </trkpt>
      <trkpt lat="49.08425" lon="2.1715">
        <ele>77</ele>
        <time>2022-09-02T14:33:35Z</time>
      </trkpt>
      <trkpt lat="49.08426" lon="2.17111">
        <ele>78</ele>
        <time>2022-09-02T14:34:35Z</time>
      </trkpt>
      <trkpt lat="49.0843" lon="2.17093">
        <ele>78</ele>
        <time>2022-09-02T14:35:35Z</time>
      </trkpt>
      <trkpt lat="49.08444" lon="2.17046">
        <ele>79</ele>
        <time>2022-09-02T14:36:35Z</time>
      </trkpt>
      <trkpt lat="49.08466" lon="2.17018">
        <ele>80</ele>
        <time>2022-09-02T14:37:35Z</time>
      </trkpt>
      <trkpt lat="49.08499" lon="2.17004">
        <ele>81</ele>
        <time>2022-09-02T14:38:35Z</time>
      </trkpt>
      <trkpt lat="49.08541" lon="2.16996">
        <ele>82</ele>
        <time>2022-09-02T14:39:35Z</time>
      </trkpt>
      <trkpt lat="49.0859" lon="2.16996">
        <ele>84</ele>
        <time>2022-09-02T14:40:35Z</time>
      </trkpt>
      <trkpt lat="49.086" lon="2.16927">
        <ele>80</ele>
        <time>2022-09-02T14:41:35Z</time>
      </trkpt>
      <trkpt lat="49.08618" lon="2.16896">
        <ele>78</ele>
        <time>2022-09-02T14:42:35Z</time>
      </trkpt>
      <trkpt lat="49.08629" lon="2.16846">
        <ele>74</ele>
        <time>2022-09-02T14:43:35Z</time>
      </trkpt>
      <trkpt lat="49.08652" lon="2.16795">
        <ele>73</ele>
        <time>2022-09-02T14:44:35Z</time>
      </trkpt>
      <trkpt lat="49.08668" lon="2.16738">
        <ele>75</ele>
        <time>2022-09-02T14:45:35Z</time>
      </trkpt>
      <trkpt lat="49.08658" lon="2.16661">
        <ele>75</ele>
        <time>2022-09-02T14:46:35Z</time>
      </trkpt>
      <trkpt lat="49.08661" lon="2.16585">
        <ele>71</ele>
        <time>2022-09-02T14:47:35Z</time>
      </trkpt>
      <trkpt lat="49.08668" lon="2.16525">
        <ele>67</ele>
        <time>2022-09-02T14:48:35Z</time>
      </trkpt>
      <trkpt lat="49.0867" lon="2.16483">
        <ele>66</ele>
        <time>2022-09-02T14:49:35Z</time>
      </trkpt>
      <trkpt lat="49.08755" lon="2.16372">
        <ele>71</ele>
        <time>2022-09-02T14:50:35Z</time>
      </trkpt>
      <trkpt lat="49.08833" lon="2.16311">
        <ele>75</ele>
        <time>2022-09-02T14:51:35Z</time>
      </trkpt>
      <trkpt lat="49.08899" lon="2.16228">
        <ele>73</ele>
        <time>2022-09-02T14:52:35Z</time>
      </trkpt>
      <trkpt lat="49.08976" lon="2.16157">
        <ele>72</ele>
        <time>2022-09-02T14:53:35Z</time>
      </trkpt>
      <trkpt lat="49.09039" lon="2.16129">
        <ele>74</ele>
        <time>2022-09-02T14:54:35Z</time>
      </trkpt>
      <trkpt lat="49.09103" lon="2.16083">
        <ele>72</ele>
        <time>2022-09-02T14:55:35Z</time>
      </trkpt>
      <trkpt lat="49.09252" lon="2.16062">
        <ele>78</ele>
        <time>2022-09-02T14:56:35Z</time>
      </trkpt>
      <trkpt lat="49.09267" lon="2.16038">
        <ele>75</ele>
        <time>2022-09-02T14:57:35Z</time>
      </trkpt>
      <trkpt lat="49.09293" lon="2.1604">
        <ele>76</ele>
        <time>2022-09-02T14:58:35Z</time>
      </trkpt>
      <trkpt lat="49.09381" lon="2.16017">
        <ele>76</ele>
        <time>2022-09-02T14:59:35Z</time>
      </trkpt>
      <trkpt lat="49.0942" lon="2.16011">
        <ele>76</ele>
        <time>2022-09-02T15:00:35Z</time>
      </trkpt>
      <trkpt lat="49.09478" lon="2.16025">
        <ele>78</ele>
        <time>2022-09-02T15:01:35Z</time>
      </trkpt>
      <trkpt lat="49.09617" lon="2.16012">
        <ele>79</ele>
        <time>2022-09-02T15:02:35Z</time>
      </trkpt>
      <trkpt lat="49.0966" lon="2.1598">
        <ele>81</ele>
        <time>2022-09-02T15:03:35Z</time>
      </trkpt>
      <trkpt lat="49.0972" lon="2.16086">
        <ele>83</ele>
        <time>2022-09-02T15:05:35Z</time>
      </trkpt>
      <trkpt lat="49.09751" lon="2.16163">
        <ele>84</ele>
        <time>2022-09-02T15:06:35Z</time>
      </trkpt>
      <trkpt lat="49.09846" lon="2.16326">
        <ele>87</ele>
        <time>2022-09-02T15:07:35Z</time>
      </trkpt>
      <trkpt lat="49.0991" lon="2.16447">
        <ele>90</ele>
        <time>2022-09-02T15:08:35Z</time>
      </trkpt>
      <trkpt lat="49.09931" lon="2.16516">
        <ele>92</ele>
        <time>2022-09-02T15:09:35Z</time>
      </trkpt>
      <trkpt lat="49.10106" lon="2.16351">
        <ele>92</ele>
        <time>2022-09-02T15:10:35Z</time>
      </trkpt>
      <trkpt lat="49.10215" lon="2.16256">
        <ele>94</ele>
        <time>2022-09-02T15:11:35Z</time>
      </trkpt>
      <trkpt lat="49.10309" lon="2.16148">
        <ele>96</ele>
        <time>2022-09-02T15:12:35Z</time>
      </trkpt>
      <trkpt lat="49.10356" lon="2.15996">
        <ele>102</ele>
        <time>2022-09-02T15:13:35Z</time>
      </trkpt>
      <trkpt lat="49.10361" lon="2.1598">
        <ele>102</ele>
        <time>2022-09-02T15:14:35Z</time>
      </trkpt>
      <trkpt lat="49.10381" lon="2.15969">
        <ele>103</ele>
        <time>2022-09-02T15:15:35Z</time>
      </trkpt>
      <trkpt lat="49.10496" lon="2.15934">
        <ele>106</ele>
        <time>2022-09-02T15:16:35Z</time>
      </trkpt>
      <trkpt lat="49.10689" lon="2.159">
        <ele>108</ele>
        <time>2022-09-02T15:17:35Z</time>
      </trkpt>
      <trkpt lat="49.10653" lon="2.15673">
        <ele>105</ele>
        <time>2022-09-02T15:18:35Z</time>
      </trkpt>
      <trkpt lat="49.10575" lon="2.15317">
        <ele>100</ele>
        <time>2022-09-02T15:19:35Z</time>
      </trkpt>
      <trkpt lat="49.10562" lon="2.15236">
        <ele>98</ele>
        <time>2022-09-02T15:20:35Z</time>
      </trkpt>
      <trkpt lat="49.10559" lon="2.15154">
        <ele>95</ele>
        <time>2022-09-02T15:21:35Z</time>
      </trkpt>
      <trkpt lat="49.10548" lon="2.15126">
        <ele>93</ele>
        <time>2022-09-02T15:22:35Z</time>
      </trkpt>
      <trkpt lat="49.10503" lon="2.1506">
        <ele>87</ele>
        <time>2022-09-02T15:23:35Z</time>
      </trkpt>
      <trkpt lat="49.10421" lon="2.14981">
        <ele>86</ele>
        <time>2022-09-02T15:24:35Z</time>
      </trkpt>
      <trkpt lat="49.10428" lon="2.1493">
        <ele>85</ele>
        <time>2022-09-02T15:25:35Z</time>
      </trkpt>
      <trkpt lat="49.10493" lon="2.14571">
        <ele>93</ele>
        <time>2022-09-02T15:26:35Z</time>
      </trkpt>
      <trkpt lat="49.10492" lon="2.14545">
        <ele>93</ele>
        <time>2022-09-02T15:27:35Z</time>
      </trkpt>
      <trkpt lat="49.10443" lon="2.14119">
        <ele>102</ele>
        <time>2022-09-02T15:28:35Z</time>
      </trkpt>
      <trkpt lat="49.10354" lon="2.14039">
        <ele>102</ele>
        <time>2022-09-02T15:29:35Z</time>
      </trkpt>
      <trkpt lat="49.10234" lon="2.13912">
        <ele>104</ele>
        <time>2022-09-02T15:30:35Z</time>
      </trkpt>
      <trkpt lat="49.1016" lon="2.13857">
        <ele>105</ele>
        <time>2022-09-02T15:31:35Z</time>
      </trkpt>
      <trkpt lat="49.10123" lon="2.13807">
        <ele>106</ele>
        <time>2022-09-02T15:32:35Z</time>
      </trkpt>
      <trkpt lat="49.10093" lon="2.13755">
        <ele>108</ele>
        <time>2022-09-02T15:33:35Z</time>
      </trkpt>
      <trkpt lat="49.10157" lon="2.13651">
        <ele>111</ele>
        <time>2022-09-02T15:34:35Z</time>
      </trkpt>
      <trkpt lat="49.10188" lon="2.136">
        <ele>113</ele>
        <time>2022-09-02T15:35:35Z</time>
      </trkpt>
      <trkpt lat="49.1017" lon="2.13544">
        <ele>114</ele>
        <time>2022-09-02T15:36:35Z</time>
      </trkpt>
      <trkpt lat="49.10157" lon="2.1352">
        <ele>114</ele>
        <time>2022-09-02T15:37:35Z</time>
      </trkpt>
      <trkpt lat="49.10144" lon="2.13503">
        <ele>114</ele>
        <time>2022-09-02T15:38:35Z</time>
      </trkpt>
      <trkpt lat="49.10135" lon="2.13491">
        <ele>114</ele>
        <time>2022-09-02T15:39:35Z</time>
      </trkpt>
      <trkpt lat="49.1014" lon="2.13467">
        <ele>115</ele>
        <time>2022-09-02T15:41:35Z</time>
      </trkpt>
      <trkpt lat="49.10156" lon="2.13441">
        <ele>116</ele>
        <time>2022-09-02T15:42:35Z</time>
      </trkpt>
      <trkpt lat="49.10195" lon="2.13366">
        <ele>118</ele>
        <time>2022-09-02T15:43:35Z</time>
      </trkpt>
      <trkpt lat="49.10226" lon="2.13285">
        <ele>117</ele>
        <time>2022-09-02T15:44:35Z</time>
      </trkpt>
      <trkpt lat="49.10235" lon="2.13257">
        <ele>116</ele>
        <time>2022-09-02T15:45:35Z</time>
      </trkpt>
      <trkpt lat="49.102" lon="2.13225">
        <ele>115</ele>
        <time>2022-09-02T15:46:35Z</time>
      </trkpt>
      <trkpt lat="49.1012" lon="2.13217">
        <ele>116</ele>
        <time>2022-09-02T15:47:35Z</time>
      </trkpt>
      <trkpt lat="49.10095" lon="2.13145">
        <ele>115</ele>
        <time>2022-09-02T15:49:35Z</time>
      </trkpt>
      <trkpt lat="49.10087" lon="2.13136">
        <ele>115</ele>
        <time>2022-09-02T15:50:35Z</time>
      </trkpt>
      <trkpt lat="49.10035" lon="2.13161">
        <ele>115</ele>
        <time>2022-09-02T15:52:35Z</time>
      </trkpt>
      <trkpt lat="49.10019" lon="2.13157">
        <ele>114</ele>
        <time>2022-09-02T15:54:35Z</time>
      </trkpt>
      <trkpt lat="49.10006" lon="2.13142">
        <ele>114</ele>
        <time>2022-09-02T15:55:35Z</time>
      </trkpt>
      <trkpt lat="49.09959" lon="2.13039">
        <ele>110</ele>
        <time>2022-09-02T15:56:35Z</time>
      </trkpt>
      <trkpt lat="49.09943" lon="2.13012">
        <ele>110</ele>
        <time>2022-09-02T15:57:35Z</time>
      </trkpt>
      <trkpt lat="49.09882" lon="2.12936">
        <ele>108</ele>
        <time>2022-09-02T15:58:35Z</time>
      </trkpt>
      <trkpt lat="49.09855" lon="2.12894">
        <ele>108</ele>
        <time>2022-09-02T15:59:35Z</time>
      </trkpt>
      <trkpt lat="49.09851" lon="2.12876">
        <ele>108</ele>
        <time>2022-09-02T16:00:35Z</time>
      </trkpt>
      <trkpt lat="49.09832" lon="2.12862">
        <ele>108</ele>
        <time>2022-09-02T16:01:35Z</time>
      </trkpt>
      <trkpt lat="49.09819" lon="2.12864">
        <ele>108</ele>
        <time>2022-09-02T16:02:35Z</time>
      </trkpt>
      <trkpt lat="49.09795" lon="2.12875">
        <ele>108</ele>
        <time>2022-09-02T16:03:35Z</time>
      </trkpt>
      <trkpt lat="49.09764" lon="2.12896">
        <ele>109</ele>
        <time>2022-09-02T16:04:35Z</time>
      </trkpt>
      <trkpt lat="49.09704" lon="2.12959">
        <ele>107</ele>
        <time>2022-09-02T16:05:35Z</time>
      </trkpt>
      <trkpt lat="49.09599" lon="2.13063">
        <ele>103</ele>
        <time>2022-09-02T16:07:35Z</time>
      </trkpt>
      <trkpt lat="49.09576" lon="2.13052">
        <ele>103</ele>
        <time>2022-09-02T16:08:35Z</time>
      </trkpt>
      <trkpt lat="49.09494" lon="2.12969">
        <ele>103</ele>
        <time>2022-09-02T16:09:35Z</time>
      </trkpt>
      <trkpt lat="49.09109" lon="2.12429">
        <ele>102</ele>
        <time>2022-09-02T16:10:35Z</time>
      </trkpt>
      <trkpt lat="49.0901" lon="2.12302">
        <ele>99</ele>
        <time>2022-09-02T16:11:35Z</time>
      </trkpt>
      <trkpt lat="49.08979" lon="2.12265">
        <ele>98</ele>
        <time>2022-09-02T16:12:35Z</time>
      </trkpt>
      <trkpt lat="49.08898" lon="2.12174">
        <ele>96</ele>
        <time>2022-09-02T16:13:35Z</time>
      </trkpt>
      <trkpt lat="49.08883" lon="2.12207">
        <ele>96</ele>
        <time>2022-09-02T16:14:35Z</time>
      </trkpt>
      <trkpt lat="49.08681" lon="2.12646">
        <ele>99</ele>
        <time>2022-09-02T16:15:35Z</time>
      </trkpt>
      <trkpt lat="49.08598" lon="2.1281">
        <ele>96</ele>
        <time>2022-09-02T16:16:35Z</time>
      </trkpt>
      <trkpt lat="49.08398" lon="2.13189">
        <ele>87</ele>
        <time>2022-09-02T16:17:35Z</time>
      </trkpt>
      <trkpt lat="49.0836" lon="2.13124">
        <ele>88</ele>
        <time>2022-09-02T16:18:35Z</time>
      </trkpt>
      <trkpt lat="49.08319" lon="2.13057">
        <ele>89</ele>
        <time>2022-09-02T16:19:35Z</time>
      </trkpt>
      <trkpt lat="49.0816" lon="2.13254">
        <ele>80</ele>
        <time>2022-09-02T16:20:35Z</time>
      </trkpt>
      <trkpt lat="49.08157" lon="2.13318">
        <ele>78</ele>
        <time>2022-09-02T16:21:35Z</time>
      </trkpt>
      <trkpt lat="49.08129" lon="2.13439">
        <ele>77</ele>
        <time>2022-09-02T16:22:35Z</time>
      </trkpt>
      <trkpt lat="49.08102" lon="2.13519">
        <ele>79</ele>
        <time>2022-09-02T16:23:35Z</time>
      </trkpt>
      <trkpt lat="49.07944" lon="2.13422">
        <ele>90</ele>
        <time>2022-09-02T16:24:35Z</time>
      </trkpt>
      <trkpt lat="49.07929" lon="2.13411">
        <ele>91</ele>
        <time>2022-09-02T16:25:35Z</time>
      </trkpt>
      <trkpt lat="49.07886" lon="2.13362">
        <ele>93</ele>
        <time>2022-09-02T16:26:35Z</time>
      </trkpt>
      <trkpt lat="49.07857" lon="2.13309">
        <ele>93</ele>
        <time>2022-09-02T16:27:35Z</time>
      </trkpt>
      <trkpt lat="49.07821" lon="2.13272">
        <ele>93</ele>
        <time>2022-09-02T16:28:35Z</time>
      </trkpt>
      <trkpt lat="49.0781" lon="2.13257">
        <ele>93</ele>
        <time>2022-09-02T16:29:35Z</time>
      </trkpt>
      <trkpt lat="49.07754" lon="2.13161">
        <ele>88</ele>
        <time>2022-09-02T16:30:35Z</time>
      </trkpt>
      <trkpt lat="49.07738" lon="2.13139">
        <ele>88</ele>
        <time>2022-09-02T16:31:35Z</time>
      </trkpt>
      <trkpt lat="49.07706" lon="2.13101">
        <ele>87</ele>
        <time>2022-09-02T16:32:35Z</time>
      </trkpt>
      <trkpt lat="49.07614" lon="2.13015">
        <ele>85</ele>
        <time>2022-09-02T16:33:35Z</time>
      </trkpt>
      <trkpt lat="49.07608" lon="2.13033">
        <ele>85</ele>
        <time>2022-09-02T16:34:35Z</time>
      </trkpt>
      <trkpt lat="49.07614" lon="2.13015">
        <ele>85</ele>
        <time>2022-09-02T16:35:35Z</time>
      </trkpt>
      <trkpt lat="49.07515" lon="2.12942">
        <ele>82</ele>
        <time>2022-09-02T16:36:35Z</time>
      </trkpt>
      <trkpt lat="49.07459" lon="2.12896">
        <ele>80</ele>
        <time>2022-09-02T16:37:35Z</time>
      </trkpt>
      <trkpt lat="49.0745" lon="2.1289">
        <ele>79</ele>
        <time>2022-09-02T16:38:35Z</time>
      </trkpt>
      <trkpt lat="49.07435" lon="2.12893">
        <ele>79</ele>
        <time>2022-09-02T16:40:35Z</time>
      </trkpt>
      <trkpt lat="49.07422" lon="2.12912">
        <ele>78</ele>
        <time>2022-09-02T16:41:35Z</time>
      </trkpt>
      <trkpt lat="49.07405" lon="2.12953">
        <ele>77</ele>
        <time>2022-09-02T16:42:35Z</time>
      </trkpt>
      <trkpt lat="49.07387" lon="2.13015">
        <ele>76</ele>
        <time>2022-09-02T16:43:35Z</time>
      </trkpt>
      <trkpt lat="49.07372" lon="2.13144">
        <ele>76</ele>
        <time>2022-09-02T16:44:35Z</time>
      </trkpt>
      <trkpt lat="49.07343" lon="2.13269">
        <ele>73</ele>
        <time>2022-09-02T16:45:35Z</time>
      </trkpt>
      <trkpt lat="49.07333" lon="2.13302">
        <ele>74</ele>
        <time>2022-09-02T16:46:35Z</time>
      </trkpt>
      <trkpt lat="49.07313" lon="2.13286">
        <ele>73</ele>
        <time>2022-09-02T16:47:35Z</time>
      </trkpt>
      <trkpt lat="49.07297" lon="2.13263">
        <ele>72</ele>
        <time>2022-09-02T16:48:35Z</time>
      </trkpt>
      <trkpt lat="49.07236" lon="2.13354">
        <ele>75</ele>
        <time>2022-09-02T16:49:35Z</time>
      </trkpt>
      <trkpt lat="49.07224" lon="2.13374">
        <ele>76</ele>
        <time>2022-09-02T16:50:35Z</time>
      </trkpt>
      <trkpt lat="49.07202" lon="2.13434">
        <ele>77</ele>
        <time>2022-09-02T16:51:35Z</time>
      </trkpt>
      <trkpt lat="49.07193" lon="2.13451">
        <ele>78</ele>
        <time>2022-09-02T16:52:35Z</time>
      </trkpt>
      <trkpt lat="49.07117" lon="2.13498">
        <ele>80</ele>
        <time>2022-09-02T16:53:35Z</time>
      </trkpt>
      <trkpt lat="49.07157" lon="2.13588">
        <ele>81</ele>
        <time>2022-09-02T16:54:35Z</time>
      </trkpt>
      <trkpt lat="49.07168" lon="2.13626">
        <ele>81</ele>
        <time>2022-09-02T16:55:35Z</time>
      </trkpt>
      <trkpt lat="49.07173" lon="2.13652">
        <ele>81</ele>
        <time>2022-09-02T16:56:35Z</time>
      </trkpt>
      <trkpt lat="49.07179" lon="2.13705">
        <ele>80</ele>
        <time>2022-09-02T16:57:35Z</time>
      </trkpt>
      <trkpt lat="49.07176" lon="2.13755">
        <ele>79</ele>
        <time>2022-09-02T16:58:35Z</time>
      </trkpt>
      <trkpt lat="49.07164" lon="2.13841">
        <ele>77</ele>
        <time>2022-09-02T16:59:35Z</time>
      </trkpt>
      <trkpt lat="49.07163" lon="2.13915">
        <ele>74</ele>
        <time>2022-09-02T17:00:35Z</time>
      </trkpt>
      <trkpt lat="49.07166" lon="2.13946">
        <ele>74</ele>
        <time>2022-09-02T17:01:35Z</time>
      </trkpt>
      <trkpt lat="49.07178" lon="2.14046">
        <ele>74</ele>
        <time>2022-09-02T17:03:35Z</time>
      </trkpt>
      <trkpt lat="49.07193" lon="2.14105">
        <ele>75</ele>
        <time>2022-09-02T17:04:35Z</time>
      </trkpt>
      <trkpt lat="49.07132" lon="2.14144">
        <ele>68</ele>
        <time>2022-09-02T17:05:35Z</time>
      </trkpt>
      <trkpt lat="49.07132" lon="2.14159">
        <ele>68</ele>
        <time>2022-09-02T17:06:35Z</time>
      </trkpt>
      <trkpt lat="49.07149" lon="2.14204">
        <ele>72</ele>
        <time>2022-09-02T17:07:35Z</time>
      </trkpt>
      <trkpt lat="49.07151" lon="2.14233">
        <ele>73</ele>
        <time>2022-09-02T17:08:35Z</time>
      </trkpt>
      <trkpt lat="49.07157" lon="2.1426">
        <ele>75</ele>
        <time>2022-09-02T17:09:35Z</time>
      </trkpt>
      <trkpt lat="49.07174" lon="2.1429">
        <ele>78</ele>
        <time>2022-09-02T17:10:35Z</time>
      </trkpt>
      <trkpt lat="49.07213" lon="2.14391">
        <ele>77</ele>
        <time>2022-09-02T17:11:35Z</time>
      </trkpt>
      <trkpt lat="49.07232" lon="2.14421">
        <ele>77</ele>
        <time>2022-09-02T17:12:35Z</time>
      </trkpt>
      <trkpt lat="49.07262" lon="2.1448">
        <ele>79</ele>
        <time>2022-09-02T17:13:35Z</time>
      </trkpt>
      <trkpt lat="49.0728" lon="2.14485">
        <ele>79</ele>
        <time>2022-09-02T17:14:35Z</time>
      </trkpt>
      <trkpt lat="49.07295" lon="2.14513">
        <ele>80</ele>
        <time>2022-09-02T17:15:35Z</time>
      </trkpt>
      <trkpt lat="49.07294" lon="2.14564">
        <ele>78</ele>
        <time>2022-09-02T17:16:35Z</time>
      </trkpt>
      <trkpt lat="49.07288" lon="2.14582">
        <ele>77</ele>
        <time>2022-09-02T17:17:35Z</time>
      </trkpt>
      <trkpt lat="49.07279" lon="2.14594">
        <ele>77</ele>
        <time>2022-09-02T17:18:35Z</time>
      </trkpt>
      <trkpt lat="49.07231" lon="2.14642">
        <ele>70</ele>
        <time>2022-09-02T17:19:35Z</time>
      </trkpt>
      <trkpt lat="49.072" lon="2.14651">
        <ele>64</ele>
        <time>2022-09-02T17:20:35Z</time>
      </trkpt>
      <trkpt lat="49.07189" lon="2.14658">
        <ele>61</ele>
        <time>2022-09-02T17:21:35Z</time>
      </trkpt>
      <trkpt lat="49.0719" lon="2.1474">
        <ele>54</ele>
        <time>2022-09-02T17:24:35Z</time>
      </trkpt>
      <trkpt lat="49.07206" lon="2.14836">
        <ele>52</ele>
        <time>2022-09-02T17:25:35Z</time>
      </trkpt>
      <trkpt lat="49.07207" lon="2.14859">
        <ele>52</ele>
        <time>2022-09-02T17:26:35Z</time>
      </trkpt>
      <trkpt lat="49.07203" lon="2.14922">
        <ele>49</ele>
        <time>2022-09-02T17:27:35Z</time>
      </trkpt>
      <trkpt lat="49.07192" lon="2.14957">
        <ele>45</ele>
        <time>2022-09-02T17:28:35Z</time>
      </trkpt>
      <trkpt lat="49.07177" lon="2.14979">
        <ele>41</ele>
        <time>2022-09-02T17:29:35Z</time>
      </trkpt>
      <trkpt lat="49.07186" lon="2.14992">
        <ele>44</ele>
        <time>2022-09-02T17:30:35Z</time>
      </trkpt>
      <trkpt lat="49.07192" lon="2.15066">
        <ele>45</ele>
        <time>2022-09-02T17:31:35Z</time>
      </trkpt>
      <trkpt lat="49.07193" lon="2.15149">
        <ele>44</ele>
        <time>2022-09-02T17:32:35Z</time>
      </trkpt>
      <trkpt lat="49.0719" lon="2.15174">
        <ele>43</ele>
        <time>2022-09-02T17:33:35Z</time>
      </trkpt>
      <trkpt lat="49.07189" lon="2.1521">
        <ele>41</ele>
        <time>2022-09-02T17:34:35Z</time>
      </trkpt>
      <trkpt lat="49.07188" lon="2.15225">
        <ele>41</ele>
        <time>2022-09-02T17:36:35Z</time>
      </trkpt>
      <trkpt lat="49.0719" lon="2.15272">
        <ele>41</ele>
        <time>2022-09-02T17:37:35Z</time>
      </trkpt>
      <trkpt lat="49.07193" lon="2.15375">
        <ele>41</ele>
        <time>2022-09-02T17:39:35Z</time>
      </trkpt>
      <trkpt lat="49.07202" lon="2.15445">
        <ele>40</ele>
        <time>2022-09-02T17:40:35Z</time>
      </trkpt>
      <trkpt lat="49.07198" lon="2.15497">
        <ele>38</ele>
        <time>2022-09-02T17:41:35Z</time>
      </trkpt>
      <trkpt lat="49.07183" lon="2.15508">
        <ele>36</ele>
        <time>2022-09-02T17:42:35Z</time>
      </trkpt>
      <trkpt lat="49.07173" lon="2.15552">
        <ele>37</ele>
        <time>2022-09-02T17:43:35Z</time>
      </trkpt>
      <trkpt lat="49.07165" lon="2.15602">
        <ele>39</ele>
        <time>2022-09-02T17:44:35Z</time>
      </trkpt>
      <trkpt lat="49.07155" lon="2.15686">
        <ele>40</ele>
        <time>2022-09-02T17:45:35Z</time>
      </trkpt>
      <trkpt lat="49.07118" lon="2.15876">
        <ele>38</ele>
        <time>2022-09-02T17:46:35Z</time>
      </trkpt>
      <trkpt lat="49.07104" lon="2.15996">
        <ele>37</ele>
        <time>2022-09-02T17:47:35Z</time>
      </trkpt>
      <trkpt lat="49.07121" lon="2.1624">
        <ele>37</ele>
        <time>2022-09-02T17:48:35Z</time>
      </trkpt>
      <trkpt lat="49.07126" lon="2.16291">
        <ele>37</ele>
        <time>2022-09-02T17:49:35Z</time>
      </trkpt>
      <trkpt lat="49.07122" lon="2.16419">
        <ele>37</ele>
        <time>2022-09-02T17:50:35Z</time>
      </trkpt>
      <trkpt lat="49.07126" lon="2.16468">
        <ele>37</ele>
        <time>2022-09-02T17:51:35Z</time>
      </trkpt>
      <trkpt lat="49.0714" lon="2.16529">
        <ele>39</ele>
        <time>2022-09-02T17:52:35Z</time>
      </trkpt>
      <trkpt lat="49.07145" lon="2.16543">
        <ele>40</ele>
        <time>2022-09-02T17:53:35Z</time>
      </trkpt>
      <trkpt lat="49.07142" lon="2.16582">
        <ele>39</ele>
        <time>2022-09-02T17:55:35Z</time>
      </trkpt>
      <trkpt lat="49.07152" lon="2.16676">
        <ele>39</ele>
        <time>2022-09-02T17:56:35Z</time>
      </trkpt>
      <trkpt lat="49.07156" lon="2.16696">
        <ele>38</ele>
        <time>2022-09-02T17:57:35Z</time>
      </trkpt>
      <trkpt lat="49.07164" lon="2.16726">
        <ele>37</ele>
        <time>2022-09-02T17:58:35Z</time>
      </trkpt>
      <trkpt lat="49.07182" lon="2.16781">
        <ele>35</ele>
        <time>2022-09-02T17:59:35Z</time>
      </trkpt>
      <trkpt lat="49.07199" lon="2.16789">
        <ele>37</ele>
        <time>2022-09-02T18:00:35Z</time>
      </trkpt>
      <trkpt lat="49.07223" lon="2.16825">
        <ele>36</ele>
        <time>2022-09-02T18:01:35Z</time>
      </trkpt>
      <trkpt lat="49.07228" lon="2.1684">
        <ele>35</ele>
        <time>2022-09-02T18:02:35Z</time>
      </trkpt>
      <trkpt lat="49.07244" lon="2.1692">
        <ele>30</ele>
        <time>2022-09-02T18:03:35Z</time>
      </trkpt>
      <trkpt lat="49.07177" lon="2.16949">
        <ele>30</ele>
        <time>2022-09-02T18:04:35Z</time>
      </trkpt>
      <trkpt lat="49.07179" lon="2.16956">
        <ele>30</ele>
        <time>2022-09-02T18:05:35Z</time>
      </trkpt>
    </trkseg>
  </trk>
</gpx>